Terminal Aerodrome Forecast
Issued by NWS

Home | Current Version | Previous Version | Graphics & Text | Print | Product List | Glossary Off
Versions: 1 2 3 4 5 6 7 8 9 10 11 12 13 14 15 16 17 18 19 20 21 22 23 24 25 26 27 28 29 30 31 32 33 34 35 36 37 38 39 40 41 42 43 44 45 46 47 48 49 50

000
FTUS43 KDDC 160236 AAA
TAFGCK
TAF AMD
KGCK 160236Z 1603/1624 14020G31KT P6SM SKC
     FM160600 11013KT P6SM SCT007 BKN070
     FM160900 12012KT 1SM BR BKN007
     FM161500 13013KT P6SM BKN050=

USA.gov is the U.S. government's official web portal to all federal, state and local government web resources and services.